Time;durP1;ratioP1;P1;durP2;ratioP2;P2;SDS_P1;SDS_P2;PMS_P1;PMS_P2;Temp;Humidity;BMP_temperature;BMP_pressure;BME280_temperature;BME280_humidity;BME280_pressure;Samples;Min_cycle;Max_cycle;Signal;HPM_P1;HPM_P2
2022/08/21 00:00:49;;;;;;;;;4.00;4.00;;;;;23.57;70.15;100571.13;5010923;28;45653;-72
2022/08/21 00:03:15;;;;;;;;;3.00;3.00;;;;;23.55;70.19;100561.41;5016026;28;46132;-72
2022/08/21 00:05:45;;;;;;;;;3.67;3.33;;;;;23.63;69.97;100565.66;5017239;28;45306;-71
2022/08/21 00:08:10;;;;;;;;;4.33;3.00;;;;;23.58;70.10;100570.22;5017083;28;45304;-72
2022/08/21 00:10:37;;;;;;;;;2.00;1.67;;;;;23.56;69.77;100573.84;5015884;28;45361;-72
2022/08/21 00:13:04;;;;;;;;;3.67;3.67;;;;;23.48;70.25;100576.69;5016448;28;45498;-72
2022/08/21 00:15:32;;;;;;;;;5.00;4.00;;;;;23.38;70.03;100567.16;5016669;28;45462;-72
2022/08/21 00:17:58;;;;;;;;;3.67;2.00;;;;;23.40;69.91;100562.66;5016249;28;45487;-71
2022/08/21 00:20:24;;;;;;;;;4.00;3.00;;;;;23.36;70.32;100558.31;5013585;28;45457;-72
2022/08/21 00:22:51;;;;;;;;;2.00;2.00;;;;;23.41;69.58;100573.25;5012405;28;45584;-72
2022/08/21 00:25:19;;;;;;;;;4.67;3.33;;;;;23.44;69.67;100577.66;5005484;28;45374;-73
2022/08/21 00:27:46;;;;;;;;;3.00;3.00;;;;;23.40;69.86;100560.00;5016975;28;45354;-72
2022/08/21 00:30:13;;;;;;;;;3.00;2.33;;;;;23.44;69.77;100569.66;5016791;28;45539;-71
2022/08/21 00:32:39;;;;;;;;;3.00;3.00;;;;;23.39;69.85;100558.22;5016164;28;46821;-73
2022/08/21 00:35:08;;;;;;;;;4.00;3.00;;;;;23.46;69.49;100567.84;5016634;28;45472;-72
2022/08/21 00:37:34;;;;;;;;;1.67;1.67;;;;;23.37;69.25;100542.25;5016401;28;45261;-71
2022/08/21 00:40:00;;;;;;;;;3.00;2.67;;;;;23.42;69.16;100553.72;5015166;28;45454;-71
2022/08/21 00:42:27;;;;;;;;;3.33;3.00;;;;;23.50;69.82;100566.88;5015259;28;45798;-71
2022/08/21 00:44:53;;;;;;;;;4.00;3.00;;;;;23.38;69.13;100543.16;5016585;28;45490;-73
2022/08/21 00:47:19;;;;;;;;;3.67;3.00;;;;;23.44;69.04;100551.00;5015464;28;45527;-72
2022/08/21 00:49:45;;;;;;;;;2.00;2.00;;;;;23.40;69.32;100550.19;5017432;28;45546;-72
2022/08/21 00:52:19;;;;;;;;;3.00;2.67;;;;;23.45;68.66;100547.41;5019709;28;45474;-72
2022/08/21 00:54:45;;;;;;;;;2.33;2.33;;;;;23.47;68.61;100548.25;5020053;28;45332;-71
2022/08/21 00:57:20;;;;;;;;;3.00;3.00;;;;;23.44;69.24;100540.34;5019734;28;45557;-72
2022/08/21 00:59:50;;;;;;;;;4.00;3.00;;;;;23.49;69.50;100549.09;5020231;28;45487;-73
2022/08/21 01:02:18;;;;;;;;;4.00;4.00;;;;;23.47;69.74;100544.72;5019723;28;46250;-72
2022/08/21 01:04:44;;;;;;;;;3.00;3.00;;;;;23.52;69.30;100553.50;5018251;28;45544;-71
2022/08/21 01:07:10;;;;;;;;;4.00;4.00;;;;;23.47;69.61;100537.59;5019173;28;45514;-72
2022/08/21 01:09:37;;;;;;;;;2.33;2.33;;;;;23.48;69.81;100536.69;5018518;28;45344;-72
2022/08/21 01:12:03;;;;;;;;;2.00;2.00;;;;;23.53;69.73;100544.56;5019870;28;45553;-72
2022/08/21 01:14:30;;;;;;;;;2.33;2.33;;;;;23.50;69.25;100545.53;5015167;28;45486;-72
2022/08/21 01:16:57;;;;;;;;;4.00;3.67;;;;;23.41;69.66;100541.28;5018382;28;45586;-73
2022/08/21 01:19:24;;;;;;;;;3.00;2.00;;;;;23.49;70.29;100559.75;5018705;28;45421;-71
2022/08/21 01:21:50;;;;;;;;;3.67;3.00;;;;;23.50;69.85;100545.53;5019256;28;46195;-72
2022/08/21 01:24:16;;;;;;;;;3.67;3.00;;;;;23.39;70.76;100531.56;5019826;28;45330;-71
2022/08/21 01:26:42;;;;;;;;;5.67;3.00;;;;;23.42;70.36;100531.50;5019187;28;45649;-73
2022/08/21 01:29:20;;;;;;;;;4.00;3.00;;;;;23.46;70.79;100538.53;5018201;28;45495;-72
2022/08/21 01:31:46;;;;;;;;;5.00;4.00;;;;;23.44;70.03;100529.69;5019080;28;46212;-72
2022/08/21 01:34:12;;;;;;;;;4.67;4.67;;;;;23.37;69.96;100517.41;5003388;28;45485;-73
2022/08/21 01:36:37;;;;;;;;;5.00;5.00;;;;;23.35;69.68;100516.56;5019113;28;45406;-73
2022/08/21 01:39:04;;;;;;;;;3.00;3.00;;;;;23.39;70.25;100535.09;5019602;28;45368;-71
2022/08/21 01:41:30;;;;;;;;;3.33;3.33;;;;;23.23;70.86;100521.25;5017885;28;47905;-72
2022/08/21 01:43:55;;;;;;;;;5.00;3.67;;;;;23.35;70.36;100544.09;5018840;28;45497;-71
2022/08/21 01:46:21;;;;;;;;;4.00;4.00;;;;;23.43;70.74;100539.44;5019139;28;45493;-73
2022/08/21 01:48:47;;;;;;;;;3.67;2.33;;;;;23.41;70.87;100543.06;5018951;28;45501;-73
2022/08/21 01:51:12;;;;;;;;;4.67;3.67;;;;;23.39;70.53;100535.09;5018590;28;46302;-73
2022/08/21 01:53:38;;;;;;;;;5.00;4.00;;;;;23.34;70.95;100514.81;5018727;28;45597;-72
2022/08/21 01:56:09;;;;;;;;;3.00;3.00;;;;;23.45;71.20;100534.09;5018885;28;45440;-72
2022/08/21 01:58:35;;;;;;;;;4.33;3.67;;;;;23.39;71.06;100526.25;5018073;28;45577;-72
2022/08/21 02:01:02;;;;;;;;;4.00;2.67;;;;;23.42;70.24;100526.19;5017872;28;45971;-72
2022/08/21 02:03:31;;;;;;;;;4.67;3.00;;;;;23.48;70.34;100531.38;5018391;28;45265;-72
2022/08/21 02:05:57;;;;;;;;;4.00;4.00;;;;;23.36;70.70;100521.00;5002467;28;45457;-72
2022/08/21 02:08:23;;;;;;;;;2.00;2.00;;;;;23.43;70.44;100527.91;5018786;28;45576;-73
2022/08/21 02:10:50;;;;;;;;;3.67;2.00;;;;;23.44;70.61;100527.03;5030334;28;45627;-73
2022/08/21 02:13:17;;;;;;;;;3.00;2.67;;;;;23.32;70.20;100522.84;5029798;28;45442;-72
2022/08/21 02:15:43;;;;;;;;;2.00;2.00;;;;;23.20;70.35;100489.34;5018669;28;45308;-73
2022/08/21 02:18:08;;;;;;;;;1.33;1.33;;;;;23.38;70.33;100524.50;5018795;28;45410;-72
2022/08/21 02:20:37;;;;;;;;;2.00;1.33;;;;;23.37;69.84;100518.25;5016907;28;47258;-72
2022/08/21 02:23:04;;;;;;;;;2.33;2.00;;;;;23.43;69.73;100533.25;5018390;28;45605;-73
2022/08/21 02:25:30;;;;;;;;;2.00;1.67;;;;;23.43;69.94;100534.13;5018220;28;45428;-73
2022/08/21 02:27:57;;;;;;;;;0.33;0.00;;;;;23.39;69.73;100531.56;5003266;28;45257;-71
2022/08/21 02:30:29;;;;;;;;;2.00;1.00;;;;;23.32;69.79;100508.66;5018313;28;45502;-72
2022/08/21 02:32:55;;;;;;;;;2.00;2.00;;;;;23.36;70.29;100534.31;5005718;28;45327;-73
2022/08/21 02:35:21;;;;;;;;;1.00;1.00;;;;;23.37;70.48;100530.72;5016600;28;45556;-72
2022/08/21 02:37:52;;;;;;;;;1.00;1.00;;;;;23.37;70.07;100533.41;5017600;28;45475;-72
2022/08/21 02:40:22;;;;;;;;;1.33;1.00;;;;;23.39;70.02;100531.56;5017890;28;45473;-73
2022/08/21 02:42:48;;;;;;;;;1.00;1.00;;;;;23.41;69.77;100543.06;5032988;28;45476;-71
2022/08/21 02:45:14;;;;;;;;;2.00;1.67;;;;;23.38;70.22;100535.16;5016965;28;45446;-71
2022/08/21 02:47:48;;;;;;;;;1.67;1.67;;;;;23.25;70.40;100531.00;5018674;28;45529;-73
2022/08/21 02:50:13;;;;;;;;;1.67;1.00;;;;;23.22;70.71;100537.31;5017606;28;45467;-72
2022/08/21 02:52:40;;;;;;;;;1.33;1.33;;;;;22.56;70.33;100421.47;5017046;28;45769;-72
2022/08/21 02:55:05;;;;;;;;;1.00;1.00;;;;;23.26;69.93;100527.41;5017533;28;45560;-72
2022/08/21 02:57:32;;;;;;;;;3.67;3.00;;;;;23.23;70.46;100531.91;5016705;28;45452;-71
2022/08/21 02:59:57;;;;;;;;;1.00;1.00;;;;;23.17;70.40;100524.06;5018206;28;45606;-72
2022/08/21 03:02:23;;;;;;;;;0.33;0.33;;;;;23.21;70.26;100532.88;5017606;28;45418;-72
2022/08/21 03:04:49;;;;;;;;;1.00;1.00;;;;;23.13;70.04;100517.03;5017499;28;45502;-73
2022/08/21 03:07:15;;;;;;;;;2.00;1.00;;;;;23.25;69.88;100542.53;5017515;28;45477;-73
2022/08/21 03:09:40;;;;;;;;;1.00;1.00;;;;;23.19;69.82;100524.91;5017090;28;46418;-71
2022/08/21 03:12:06;;;;;;;;;1.00;1.00;;;;;23.13;69.98;100519.72;5017334;28;45822;-72
2022/08/21 03:14:32;;;;;;;;;1.00;0.33;;;;;23.16;69.86;100524.97;5017295;28;45331;-73
2022/08/21 03:16:57;;;;;;;;;0.33;0.33;;;;;23.13;69.99;100524.16;5017856;28;45422;-73
2022/08/21 03:19:23;;;;;;;;;1.00;0.67;;;;;23.13;70.31;100532.16;5017129;28;45616;-72
2022/08/21 03:21:48;;;;;;;;;1.00;1.00;;;;;23.06;70.44;100514.53;5017371;28;45458;-73
2022/08/21 03:24:14;;;;;;;;;0.67;0.67;;;;;23.00;70.25;100512.88;5017367;28;45416;-72
2022/08/21 03:26:39;;;;;;;;;1.67;1.67;;;;;23.01;70.30;100527.94;5017769;28;45527;-72
2022/08/21 03:29:07;;;;;;;;;1.00;1.00;;;;;23.02;69.94;100519.09;5017184;28;46580;-73
2022/08/21 03:31:32;;;;;;;;;1.33;1.00;;;;;23.04;70.06;100522.59;5017415;28;45359;-72
2022/08/21 03:33:58;;;;;;;;;2.00;1.00;;;;;23.02;70.11;100521.75;5017428;28;45470;-72
2022/08/21 03:36:24;;;;;;;;;1.00;0.33;;;;;23.07;69.97;100524.31;5015572;28;45494;-72
2022/08/21 03:38:50;;;;;;;;;2.00;0.67;;;;;23.14;70.17;100525.91;5016975;28;46516;-71
2022/08/21 03:41:15;;;;;;;;;0.67;0.67;;;;;23.05;70.30;100508.34;5016865;28;45363;-73
2022/08/21 03:43:41;;;;;;;;;0.67;0.67;;;;;23.08;70.57;100526.94;5014577;28;45536;-73
2022/08/21 03:46:07;;;;;;;;;1.00;1.00;;;;;23.10;70.31;100525.13;5017431;28;45672;-72
2022/08/21 03:48:35;;;;;;;;;1.00;1.00;;;;;23.01;70.27;100506.63;5017063;28;45445;-72
2022/08/21 03:51:00;;;;;;;;;1.00;1.00;;;;;22.97;70.96;100503.16;5015645;28;45348;-71
2022/08/21 03:53:26;;;;;;;;;1.67;0.67;;;;;22.88;71.78;100476.72;5012694;28;45458;-72
2022/08/21 03:55:52;;;;;;;;;3.00;2.00;;;;;23.10;71.23;100516.22;5017394;28;45401;-71
2022/08/21 03:58:22;;;;;;;;;1.00;1.00;;;;;23.14;71.51;100526.81;5017100;28;45504;-72
2022/08/21 04:00:51;;;;;;;;;1.00;0.67;;;;;23.14;72.16;100523.25;5016807;28;45435;-71
2022/08/21 04:03:18;;;;;;;;;2.00;1.67;;;;;23.05;72.34;100511.00;5016412;28;45436;-72
2022/08/21 04:05:45;;;;;;;;;1.00;1.00;;;;;23.11;72.46;100510.00;5016909;28;45488;-73
2022/08/21 04:08:11;;;;;;;;;0.33;0.33;;;;;23.12;72.33;100512.66;5014903;28;46018;-72
2022/08/21 04:10:40;;;;;;;;;1.00;1.00;;;;;23.09;71.68;100514.50;5005953;28;45768;-72
2022/08/21 04:13:07;;;;;;;;;0.00;0.00;;;;;23.07;72.59;100517.19;5015891;28;45517;-73
2022/08/21 04:15:34;;;;;;;;;3.67;1.00;;;;;23.03;72.35;100515.50;5017221;28;45684;-72
2022/08/21 04:17:59;;;;;;;;;1.00;1.00;;;;;23.04;72.48;100514.59;5015191;28;47606;-72
2022/08/21 04:20:26;;;;;;;;;1.33;1.33;;;;;22.96;72.74;100512.06;5015900;28;45482;-72
2022/08/21 04:22:52;;;;;;;;;2.00;2.00;;;;;22.87;72.76;100516.72;5016171;28;45602;-72
2022/08/21 04:25:21;;;;;;;;;2.00;1.00;;;;;22.77;73.07;100498.25;4996433;28;45393;-71
2022/08/21 04:27:47;;;;;;;;;1.33;1.00;;;;;22.79;73.33;100509.75;5014177;28;45522;-72
2022/08/21 04:30:14;;;;;;;;;1.33;1.33;;;;;22.75;74.30;100497.41;5016382;28;45367;-72
2022/08/21 04:32:43;;;;;;;;;0.67;0.67;;;;;22.79;73.83;100503.56;5016705;28;45518;-72
2022/08/21 04:35:10;;;;;;;;;1.00;1.00;;;;;22.71;73.42;100495.72;5016772;28;45435;-72
2022/08/21 04:37:37;;;;;;;;;1.00;1.00;;;;;22.63;73.50;100490.56;5016207;28;45436;-71
2022/08/21 04:40:04;;;;;;;;;2.00;1.00;;;;;22.67;73.93;100493.16;5016595;28;45484;-72
2022/08/21 04:42:30;;;;;;;;;1.67;1.00;;;;;22.64;73.91;100491.41;5014662;28;45565;-72
2022/08/21 04:44:57;;;;;;;;;1.00;1.00;;;;;22.54;74.19;100474.78;5016094;28;45339;-71
2022/08/21 04:47:23;;;;;;;;;1.00;1.00;;;;;22.57;73.86;100481.81;5016402;28;46530;-73
2022/08/21 04:49:49;;;;;;;;;0.00;0.00;;;;;22.67;74.16;100504.69;5014594;28;45479;-73
2022/08/21 04:52:19;;;;;;;;;0.33;0.33;;;;;22.76;74.08;100515.16;5014552;28;45550;-72
2022/08/21 04:54:47;;;;;;;;;1.00;1.00;;;;;22.75;74.40;100521.38;5014296;28;45459;-72
2022/08/21 04:57:15;;;;;;;;;2.00;1.00;;;;;22.62;74.65;100487.91;5014680;28;46079;-72
2022/08/21 04:59:45;;;;;;;;;1.00;1.00;;;;;22.70;75.02;100520.63;5014157;28;45319;-72
2022/08/21 05:02:13;;;;;;;;;1.00;1.00;;;;;22.64;74.72;100516.28;5014158;28;45621;-72
2022/08/21 05:04:46;;;;;;;;;1.00;1.00;;;;;22.56;74.91;100496.03;5022637;28;45489;-72
2022/08/21 05:07:16;;;;;;;;;2.00;1.00;;;;;22.71;74.72;100522.34;5023406;28;45434;-72
2022/08/21 05:09:42;;;;;;;;;1.00;1.00;;;;;22.42;75.15;100490.97;5024962;28;45548;-72
2022/08/21 05:12:08;;;;;;;;;1.33;1.00;;;;;22.47;74.45;100515.75;5023434;28;45524;-72
2022/08/21 05:14:34;;;;;;;;;1.00;1.00;;;;;22.39;74.29;100507.03;5024738;28;45615;-73
2022/08/21 05:16:59;;;;;;;;;1.33;1.33;;;;;22.33;75.10;100513.34;5023942;28;46543;-72
2022/08/21 05:19:25;;;;;;;;;1.00;1.00;;;;;22.26;74.79;100511.69;5024661;28;45360;-72
2022/08/21 05:21:51;;;;;;;;;1.00;1.00;;;;;22.26;75.54;100519.66;5022949;28;45860;-72
2022/08/21 05:24:17;;;;;;;;;0.00;0.00;;;;;22.23;75.95;100514.38;5039593;28;45573;-72
2022/08/21 05:26:44;;;;;;;;;2.00;1.00;;;;;22.16;75.52;100515.41;5024607;28;45589;-72
2022/08/21 05:29:10;;;;;;;;;1.00;1.00;;;;;22.15;75.46;100516.31;5026069;28;45523;-72
2022/08/21 05:31:37;;;;;;;;;0.00;0.00;;;;;22.21;75.91;100526.84;5020353;28;45493;-73
2022/08/21 05:34:03;;;;;;;;;1.00;0.67;;;;;22.27;75.73;100532.09;5024677;28;45397;-72
2022/08/21 05:36:30;;;;;;;;;1.67;1.00;;;;;22.41;75.44;100542.47;5023237;28;45386;-72
2022/08/21 05:38:55;;;;;;;;;0.67;0.67;;;;;22.38;75.92;100532.78;5020978;28;45733;-72
2022/08/21 05:41:21;;;;;;;;;1.00;1.00;;;;;22.39;76.15;100537.19;5027879;28;45865;-72
2022/08/21 05:43:47;;;;;;;;;0.33;0.33;;;;;22.37;76.04;100536.31;5043479;28;45635;-72
2022/08/21 05:46:12;;;;;;;;;1.00;1.00;;;;;22.52;75.79;100552.91;5024233;28;46773;-72
2022/08/21 05:48:38;;;;;;;;;1.00;1.00;;;;;22.47;76.17;100531.72;5026993;28;45533;-72
2022/08/21 05:51:10;;;;;;;;;1.00;1.00;;;;;22.46;76.61;100531.72;5026933;28;45453;-73
2022/08/21 05:53:36;;;;;;;;;0.33;0.00;;;;;22.43;75.68;100562.81;5023778;28;45453;-73
2022/08/21 05:56:03;;;;;;;;;1.00;0.33;;;;;22.37;76.08;100562.94;5027489;28;45482;-73
2022/08/21 05:58:30;;;;;;;;;1.00;1.00;;;;;22.27;76.64;100537.41;5025822;28;45568;-72
2022/08/21 06:00:55;;;;;;;;;1.00;1.00;;;;;22.36;76.37;100558.53;5023323;28;45485;-72
2022/08/21 06:03:27;;;;;;;;;1.00;1.00;;;;;22.37;76.52;100554.97;5042031;28;45428;-73
2022/08/21 06:05:53;;;;;;;;;1.00;1.00;;;;;22.37;76.16;100554.97;5028274;28;45453;-73
2022/08/21 06:08:19;;;;;;;;;2.00;1.00;;;;;22.45;75.47;100562.81;5018234;28;45546;-73
2022/08/21 06:10:46;;;;;;;;;1.00;1.00;;;;;22.46;75.55;100555.69;5033629;28;45373;-72
2022/08/21 06:13:13;;;;;;;;;1.00;1.00;;;;;22.40;75.13;100541.59;5016957;28;45607;-73
2022/08/21 06:15:39;;;;;;;;;2.00;2.00;;;;;22.44;75.06;100556.59;5016320;28;45808;-72
2022/08/21 06:18:05;;;;;;;;;1.00;1.00;;;;;22.46;74.78;100550.38;5018977;28;45221;-72
2022/08/21 06:20:31;;;;;;;;;1.00;1.00;;;;;22.42;74.63;100546.88;5017371;28;45372;-71
2022/08/21 06:22:57;;;;;;;;;1.00;0.33;;;;;22.37;75.27;100538.13;5018328;28;45364;-73
2022/08/21 06:25:24;;;;;;;;;1.00;1.00;;;;;22.49;74.69;100564.50;5017385;28;47855;-73
2022/08/21 06:27:50;;;;;;;;;2.00;2.00;;;;;22.52;74.70;100572.44;5022196;28;45557;-72
2022/08/21 06:30:16;;;;;;;;;0.00;0.00;;;;;22.50;74.64;100574.25;5027112;28;45548;-72
2022/08/21 06:32:42;;;;;;;;;1.00;1.00;;;;;22.32;74.44;100551.53;5025131;28;45637;-72
2022/08/21 06:35:08;;;;;;;;;1.00;1.00;;;;;22.43;73.93;100557.50;5016048;28;46270;-72
2022/08/21 06:37:33;;;;;;;;;1.00;1.00;;;;;22.52;74.16;100567.13;5023600;28;45391;-72
2022/08/21 06:39:59;;;;;;;;;0.33;0.33;;;;;22.56;74.07;100575.91;5026688;28;45505;-71
2022/08/21 06:42:27;;;;;;;;;1.67;1.00;;;;;22.55;73.96;100569.69;5026649;28;45540;-72
2022/08/21 06:44:52;;;;;;;;;1.00;1.00;;;;;22.52;74.33;100569.78;5027152;28;45434;-72
2022/08/21 06:47:18;;;;;;;;;0.00;0.00;;;;;22.49;74.32;100553.84;5023110;28;45398;-72
2022/08/21 06:49:43;;;;;;;;;1.00;1.00;;;;;22.56;74.41;100565.25;5026074;28;45470;-73
2022/08/21 06:52:11;;;;;;;;;2.00;2.00;;;;;22.47;74.42;100555.66;5026767;28;45481;-72
2022/08/21 06:54:37;;;;;;;;;2.00;1.33;;;;;22.55;74.44;100560.84;5022633;28;45841;-72
2022/08/21 06:57:03;;;;;;;;;2.00;2.00;;;;;22.54;74.13;100567.97;5024524;28;45597;-70
2022/08/21 06:59:29;;;;;;;;;2.00;2.00;;;;;22.67;74.26;100587.22;5026841;28;45559;-71
2022/08/21 07:01:54;;;;;;;;;2.00;0.33;;;;;22.69;74.29;100573.91;5040181;28;45926;-73
2022/08/21 07:04:20;;;;;;;;;2.00;1.33;;;;;22.63;73.67;100574.88;5023946;28;46356;-72
2022/08/21 07:06:45;;;;;;;;;3.33;2.33;;;;;22.63;74.19;100572.22;5026006;28;45430;-73
2022/08/21 07:09:11;;;;;;;;;13.33;13.33;;;;;22.54;74.55;100575.06;5024941;28;45413;-72
2022/08/21 07:11:37;;;;;;;;;3.00;2.67;;;;;22.53;74.88;100560.88;5025056;28;45597;-75
2022/08/21 07:14:04;;;;;;;;;2.00;2.00;;;;;22.69;74.57;100581.88;5025041;28;46525;-73
2022/08/21 07:16:29;;;;;;;;;2.00;1.00;;;;;22.66;73.82;100558.88;5026014;28;45529;-73
2022/08/21 07:18:55;;;;;;;;;1.00;1.00;;;;;22.70;73.26;100565.88;5026079;28;45363;-73
2022/08/21 07:21:21;;;;;;;;;6.00;5.33;;;;;22.76;73.52;100570.19;5015133;28;45697;-75
2022/08/21 07:23:50;;;;;;;;;2.00;2.00;;;;;22.81;73.08;100582.50;5015543;28;45498;-73
2022/08/21 07:26:20;;;;;;;;;1.00;1.00;;;;;22.92;73.64;100594.72;5014678;28;45482;-75
2022/08/21 07:28:50;;;;;;;;;3.00;2.00;;;;;22.99;73.89;100591.03;5001008;28;45425;-72
2022/08/21 07:31:18;;;;;;;;;3.00;1.33;;;;;23.08;73.23;100590.88;4994263;28;45565;-74
2022/08/21 07:33:44;;;;;;;;;2.67;2.67;;;;;23.23;73.49;100592.34;4994577;28;46612;-73
2022/08/21 07:36:10;;;;;;;;;1.00;1.00;;;;;23.18;72.66;100583.59;4994266;28;45896;-74
2022/08/21 07:38:36;;;;;;;;;2.67;2.33;;;;;23.18;73.26;100587.13;4991545;28;45464;-74
2022/08/21 07:41:07;;;;;;;;;1.00;1.00;;;;;23.25;72.71;100586.97;4994625;28;45450;-70
2022/08/21 07:43:32;;;;;;;;;9.00;9.00;;;;;23.27;72.48;100586.03;4994267;28;46700;-71
2022/08/21 07:45:58;;;;;;;;;1.67;1.67;;;;;23.26;72.53;100570.06;4994334;28;45511;-72
2022/08/21 07:48:23;;;;;;;;;1.00;1.00;;;;;23.51;71.51;100584.59;4994774;28;45815;-71
2022/08/21 07:50:50;;;;;;;;;1.67;1.67;;;;;23.73;70.70;100584.97;4994143;28;45975;-73
2022/08/21 07:53:16;;;;;;;;;2.00;1.00;;;;;23.89;70.10;100577.50;4992135;28;45556;-73
2022/08/21 07:55:42;;;;;;;;;0.33;0.33;;;;;24.06;69.27;100589.59;4994238;28;45547;-73
2022/08/21 07:58:08;;;;;;;;;0.67;0.67;;;;;24.08;68.72;100587.75;4994078;28;45567;-72
2022/08/21 08:00:34;;;;;;;;;1.00;1.00;;;;;23.95;69.01;100574.69;4993846;28;45591;-71
2022/08/21 08:03:00;;;;;;;;;1.00;1.00;;;;;24.00;69.34;100582.59;4992526;28;47586;-71
2022/08/21 08:05:28;;;;;;;;;1.33;1.33;;;;;23.96;69.12;100557.78;4994651;28;45787;-71
2022/08/21 08:07:54;;;;;;;;;1.00;1.00;;;;;23.97;68.64;100554.22;5009017;28;45695;-72
2022/08/21 08:10:21;;;;;;;;;2.00;2.00;;;;;24.13;67.91;100577.81;4995848;28;45430;-71
2022/08/21 08:12:47;;;;;;;;;1.00;1.00;;;;;24.08;67.32;100569.06;4995643;28;46516;-71
2022/08/21 08:15:17;;;;;;;;;2.00;1.00;;;;;23.86;68.27;100548.25;5009280;28;45392;-71
2022/08/21 08:17:43;;;;;;;;;1.00;1.00;;;;;23.90;67.70;100571.28;4993673;28;45534;-71
2022/08/21 08:20:11;;;;;;;;;2.00;2.00;;;;;23.94;67.43;100588.97;4989981;28;45349;-72
2022/08/21 08:22:38;;;;;;;;;2.00;2.00;;;;;23.89;67.80;100571.31;4995478;28;45587;-71
2022/08/21 08:25:06;;;;;;;;;2.33;2.00;;;;;23.97;68.25;100577.31;4995561;28;45428;-71
2022/08/21 08:27:32;;;;;;;;;1.33;1.33;;;;;23.97;68.64;100583.56;4975942;28;45348;-71
2022/08/21 08:29:57;;;;;;;;;2.00;2.00;;;;;23.91;68.83;100574.81;4992458;28;45578;-72
2022/08/21 08:32:24;;;;;;;;;2.00;2.00;;;;;23.94;68.60;100575.63;4994349;28;46729;-71
2022/08/21 08:34:51;;;;;;;;;2.00;2.00;;;;;24.04;68.31;100580.72;4994623;28;45689;-72
2022/08/21 08:37:18;;;;;;;;;2.00;1.67;;;;;23.57;68.18;100499.13;4979514;28;45497;-70
2022/08/21 08:39:44;;;;;;;;;2.00;1.33;;;;;23.88;67.91;100537.56;4985565;28;47223;-74
2022/08/21 08:42:32;;;;;;;;;1.00;1.00;;;;;24.22;67.53;100585.59;4999775;28;46392;-72
2022/08/21 08:45:16;;;;;;;;;1.67;1.67;;;;;24.28;67.89;100573.88;4990424;28;45377;-73
2022/08/21 08:47:58;;;;;;;;;1.67;1.67;;;;;24.42;67.18;100579.72;4992267;28;45475;-71
2022/08/21 08:50:40;;;;;;;;;2.33;1.00;;;;;24.39;66.77;100585.13;4992031;28;45434;-71
2022/08/21 08:53:14;;;;;;;;;2.00;2.00;;;;;24.34;66.50;100565.72;5016118;28;46820;-71
2022/08/21 08:55:43;;;;;;;;;4.00;1.00;;;;;24.42;66.99;100580.59;4994056;28;45586;-71
2022/08/21 08:58:16;;;;;;;;;2.00;2.00;;;;;24.45;67.67;100581.44;4993276;28;45366;-72
2022/08/21 09:00:47;;;;;;;;;5.00;5.00;;;;;24.48;67.42;100584.03;4994086;28;45824;-72
2022/08/21 09:03:12;;;;;;;;;1.00;1.00;;;;;24.54;66.38;100571.41;4993926;28;46094;-73
2022/08/21 09:05:42;;;;;;;;;1.00;1.00;;;;;24.60;66.54;100589.06;4994544;28;45416;-71
2022/08/21 09:08:42;;;;;;;;;1.33;1.33;;;;;24.53;66.29;100593.72;4994768;28;45411;-75
2022/08/21 09:11:34;;;;;;;;;2.67;2.67;;;;;24.35;67.14;100568.34;4995546;28;45919;-73
2022/08/21 09:14:40;;;;;;;;;2.67;2.67;;;;;24.55;67.90;100594.53;5012418;28;46301;-72
2022/08/21 09:17:47;;;;;;;;;2.00;2.00;;;;;24.11;67.31;100502.25;4995995;28;45500;-71
2022/08/21 09:20:15;;;;;;;;;1.67;1.00;;;;;24.73;68.19;100594.94;4994868;28;45583;-72
2022/08/21 09:23:00;;;;;;;;;2.00;1.67;;;;;24.81;67.90;100601.84;4996834;28;45444;-71
2022/08/21 09:25:32;;;;;;;;;2.00;2.00;;;;;24.45;66.67;100514.69;4995739;28;45530;-72
2022/08/21 09:27:58;;;;;;;;;3.00;2.00;;;;;25.17;66.61;100607.03;4995318;28;45497;-72
2022/08/21 09:30:28;;;;;;;;;2.67;2.67;;;;;25.43;65.35;100599.16;4997861;28;45652;-75
2022/08/21 09:32:54;;;;;;;;;1.33;1.33;;;;;25.59;64.92;100595.97;5002912;28;45531;-72
2022/08/21 09:35:22;;;;;;;;;2.00;1.33;;;;;25.70;62.65;100602.78;5005215;28;45395;-71
2022/08/21 09:38:06;;;;;;;;;2.00;1.33;;;;;25.57;63.88;100584.47;4997164;28;45375;-73
2022/08/21 09:40:56;;;;;;;;;2.67;2.00;;;;;25.80;63.73;100614.94;4993658;28;45456;-72
2022/08/21 09:43:26;;;;;;;;;2.00;2.00;;;;;25.90;63.18;100621.78;4993747;28;45532;-72
2022/08/21 09:46:11;;;;;;;;;2.33;2.00;;;;;25.94;62.54;100604.72;4994857;28;46402;-75
2022/08/21 09:48:57;;;;;;;;;0.33;0.33;;;;;25.74;62.52;100585.72;4994059;28;45410;-71
2022/08/21 09:51:32;;;;;;;;;1.67;1.67;;;;;25.77;62.96;100594.53;5010407;28;45471;-71
2022/08/21 09:54:14;;;;;;;;;1.00;1.00;;;;;25.83;62.60;100605.97;4990858;28;45545;-72
2022/08/21 09:59:39;;;;;;;;;2.67;2.00;;;;;25.70;62.44;100595.63;4995507;28;46157;-71
2022/08/21 10:02:24;;;;;;;;;2.00;2.00;;;;;25.72;63.06;100608.97;4997511;28;45454;-71
2022/08/21 10:05:06;;;;;;;;;2.00;2.00;;;;;25.87;63.14;100603.13;4998277;28;45491;-72
2022/08/21 10:07:32;;;;;;;;;2.00;2.00;;;;;26.06;62.22;100586.47;4993891;28;45703;-73
2022/08/21 10:10:17;;;;;;;;;3.00;2.00;;;;;26.34;61.07;100592.66;4995947;28;45847;-72
2022/08/21 10:13:27;;;;;;;;;2.00;2.00;;;;;26.69;60.69;100603.97;4998488;28;45542;-71
2022/08/21 10:16:25;;;;;;;;;2.00;2.00;;;;;26.59;60.40;100581.97;4980956;28;45642;-72
2022/08/21 10:18:56;;;;;;;;;1.00;1.00;;;;;26.58;60.30;100606.13;4991777;28;46053;-72
2022/08/21 10:21:45;;;;;;;;;3.00;2.00;;;;;26.59;60.51;100603.41;4994156;28;45462;-72
2022/08/21 10:24:16;;;;;;;;;2.00;1.00;;;;;26.71;59.85;100611.94;4991265;28;45552;-72
2022/08/21 10:27:02;;;;;;;;;2.00;2.00;;;;;26.74;60.28;100603.78;4992354;28;45519;-72
2022/08/21 10:29:54;;;;;;;;;2.67;2.00;;;;;26.85;60.01;100606.09;4995754;28;47035;-72
2022/08/21 10:32:26;;;;;;;;;2.00;2.00;;;;;27.07;58.46;100606.16;4994928;28;45536;-72
2022/08/21 10:35:04;;;;;;;;;3.33;3.33;;;;;27.17;58.29;100600.38;4995032;28;45364;-72
2022/08/21 10:37:39;;;;;;;;;6.00;5.33;;;;;27.26;58.55;100615.28;4995843;28;45566;-74
2022/08/21 10:40:07;;;;;;;;;5.00;5.00;;;;;27.44;58.19;100596.75;4993152;28;45558;-72
2022/08/21 10:43:16;;;;;;;;;3.00;3.00;;;;;28.01;55.65;100599.84;4989607;28;45638;-72
2022/08/21 10:46:05;;;;;;;;;8.00;8.00;;;;;28.26;55.55;100599.69;4992989;28;45467;-75
2022/08/21 10:48:47;;;;;;;;;4.00;3.33;;;;;28.39;54.42;100611.63;4988117;28;45574;-75
2022/08/21 10:51:28;;;;;;;;;2.33;2.33;;;;;28.03;55.19;100614.94;4993086;28;45437;-73
2022/08/21 10:54:05;;;;;;;;;3.33;3.00;;;;;27.88;55.55;100608.41;4999878;28;45469;-72
2022/08/21 10:56:35;;;;;;;;;2.67;2.00;;;;;27.86;55.23;100610.25;5001943;28;45928;-72
2022/08/21 10:59:09;;;;;;;;;2.00;2.00;;;;;27.95;54.80;100607.22;4998259;28;45964;-71
2022/08/21 11:01:54;;;;;;;;;8.33;5.00;;;;;27.76;54.83;100582.91;5000169;28;46334;-72
2022/08/21 11:05:13;;;;;;;;;2.00;2.00;;;;;27.98;54.63;100600.84;5003717;28;45589;-73
2022/08/21 11:07:47;;;;;;;;;4.00;3.67;;;;;28.04;53.60;100603.28;4979462;28;45601;-75
2022/08/21 11:10:20;;;;;;;;;4.67;4.00;;;;;28.10;53.67;100586.03;4980387;28;45391;-73
2022/08/21 11:12:59;;;;;;;;;4.00;4.00;;;;;28.21;52.50;100581.06;4996319;28;46272;-74
2022/08/21 11:15:41;;;;;;;;;3.00;3.00;;;;;28.50;52.67;100598.63;4995375;28;45808;-73
2022/08/21 11:18:23;;;;;;;;;4.33;3.67;;;;;28.83;52.25;100579.28;4995084;28;45547;-75
2022/08/21 11:21:00;;;;;;;;;3.00;2.00;;;;;29.21;51.23;100571.28;5008191;28;45259;-74
2022/08/21 11:23:36;;;;;;;;;5.00;4.00;;;;;29.29;50.28;100562.84;4998574;28;47274;-73
2022/08/21 11:26:13;;;;;;;;;8.00;8.00;;;;;29.42;48.94;100566.66;4981292;28;45644;-75
2022/08/21 11:28:52;;;;;;;;;4.00;3.00;;;;;29.50;49.62;100556.41;4996980;28;45466;-73
2022/08/21 11:31:33;;;;;;;;;9.33;8.00;;;;;29.71;49.19;100572.47;4996661;28;45438;-74
2022/08/21 11:34:13;;;;;;;;;5.00;4.00;;;;;29.28;48.61;100550.31;4981147;28;46551;-74
2022/08/21 11:36:54;;;;;;;;;3.33;3.33;;;;;29.20;48.86;100555.19;5008595;28;45237;-73
2022/08/21 11:39:26;;;;;;;;;3.00;3.00;;;;;29.01;48.87;100568.59;4994186;28;45340;-74